createdAt,value
2023-03-03T00:01:34.395Z,27.52
2023-03-03T00:04:02.372Z,26.98
2023-03-03T00:06:30.927Z,26.42
2023-03-03T00:09:01.183Z,28.20
2023-03-03T00:11:29.231Z,27.45
2023-03-03T00:13:57.855Z,28.85
2023-03-03T00:16:26.565Z,28.02
2023-03-03T00:18:54.928Z,28.80
2023-03-03T00:21:29.677Z,29.30
2023-03-03T00:24:16.182Z,29.27
2023-03-03T00:26:45.436Z,30.33
2023-03-03T00:29:35.830Z,27.75
2023-03-03T00:32:33.888Z,30.63
2023-03-03T00:35:03.769Z,28.13
2023-03-03T00:37:34.137Z,28.63
2023-03-03T00:40:17.445Z,29.58
2023-03-03T00:42:47.498Z,31.65
2023-03-03T00:45:24.437Z,30.25
2023-03-03T00:47:52.577Z,30.50
2023-03-03T00:50:28.655Z,31.27
2023-03-03T00:53:04.372Z,30.20
2023-03-03T00:55:34.236Z,30.83
2023-03-03T00:58:03.223Z,32.72
2023-03-03T01:00:35.925Z,30.17
2023-03-03T01:03:06.322Z,29.80
2023-03-03T01:05:35.005Z,31.25
2023-03-03T01:08:03.505Z,30.65
2023-03-03T01:10:33.634Z,32.50
2023-03-03T01:13:03.059Z,31.23
2023-03-03T01:15:30.971Z,31.98
2023-03-03T01:17:59.105Z,33.55
2023-03-03T01:20:27.022Z,33.17
2023-03-03T01:22:54.919Z,33.13
2023-03-03T01:25:23.085Z,33.85
2023-03-03T01:27:51.016Z,33.20
2023-03-03T01:30:20.558Z,33.38
2023-03-03T01:32:48.813Z,33.47
2023-03-03T01:35:17.048Z,34.53
2023-03-03T01:37:45.003Z,34.05
2023-03-03T01:40:15.339Z,34.42
2023-03-03T01:42:51.069Z,35.97
2023-03-03T01:45:23.370Z,34.95
2023-03-03T01:47:57.965Z,34.75
2023-03-03T01:50:32.453Z,35.97
2023-03-03T01:53:01.838Z,34.90
2023-03-03T01:55:32.717Z,35.83
2023-03-03T01:58:04.133Z,36.50
2023-03-03T02:00:37.806Z,36.97
2023-03-03T02:03:06.303Z,35.63
2023-03-03T02:05:34.941Z,36.70
2023-03-03T02:08:03.091Z,36.72
2023-03-03T02:10:31.582Z,37.42
2023-03-03T02:13:02.020Z,37.38
2023-03-03T02:15:33.108Z,36.35
2023-03-03T02:18:05.603Z,37.60
2023-03-03T02:20:39.755Z,37.15
2023-03-03T02:23:11.360Z,38.30
2023-03-03T02:25:45.109Z,36.45
2023-03-03T02:28:14.524Z,38.50
2023-03-03T02:30:42.507Z,38.88
2023-03-03T02:33:11.334Z,38.63
2023-03-03T02:35:40.288Z,39.67
2023-03-03T02:38:17.933Z,39.97
2023-03-03T02:40:50.276Z,44.47
2023-03-03T02:43:21.521Z,46.22
2023-03-03T02:45:50.038Z,43.60
2023-03-03T02:48:18.086Z,43.90
2023-03-03T02:50:45.936Z,45.95
2023-03-03T02:53:14.265Z,45.53
2023-03-03T02:55:42.884Z,43.90
2023-03-03T02:58:10.847Z,45.33
2023-03-03T03:00:40.390Z,45.90
2023-03-03T03:03:09.485Z,46.10
2023-03-03T03:05:39.599Z,44.58
2023-03-03T03:08:07.638Z,44.25
2023-03-03T03:10:37.025Z,44.67
2023-03-03T03:13:06.130Z,46.92
2023-03-03T03:15:36.043Z,47.22
2023-03-03T03:18:06.573Z,44.55
2023-03-03T03:20:37.114Z,44.85
2023-03-03T03:23:05.747Z,43.38
2023-03-03T03:25:33.676Z,43.63
2023-03-03T03:28:01.698Z,45.55
2023-03-03T03:30:32.632Z,46.20
2023-03-03T03:33:01.133Z,44.90
2023-03-03T03:35:30.780Z,43.47
2023-03-03T03:37:59.107Z,46.55
2023-03-03T03:40:27.790Z,43.75
2023-03-03T03:42:55.738Z,44.03
2023-03-03T03:45:24.601Z,45.78
2023-03-03T03:47:53.032Z,43.75
2023-03-03T03:50:21.022Z,45.90
2023-03-03T03:52:50.369Z,44.45
2023-03-03T03:55:18.355Z,48.97
2023-03-03T03:57:46.297Z,45.33
2023-03-03T04:00:14.803Z,46.25
2023-03-03T04:02:45.532Z,46.03
2023-03-03T04:05:15.714Z,44.95
2023-03-03T04:07:44.040Z,46.17
2023-03-03T04:10:14.246Z,47.00
2023-03-03T04:12:42.451Z,48.85
2023-03-03T04:15:15.342Z,46.92
2023-03-03T04:17:44.024Z,48.35
2023-03-03T04:20:14.132Z,46.00
2023-03-03T04:22:43.275Z,49.13
2023-03-03T04:25:14.513Z,46.58
2023-03-03T04:27:44.387Z,47.28
2023-03-03T04:30:15.403Z,46.00
2023-03-03T04:32:45.757Z,45.15
2023-03-03T04:35:14.510Z,43.00
2023-03-03T04:37:44.563Z,46.42
2023-03-03T04:40:18.436Z,43.58
2023-03-03T04:42:48.754Z,43.78
2023-03-03T04:45:16.799Z,40.50
2023-03-03T04:47:46.606Z,41.35
2023-03-03T04:50:15.257Z,39.42
2023-03-03T04:52:43.601Z,38.65
2023-03-03T04:55:14.184Z,36.80
2023-03-03T04:57:43.683Z,38.97
2023-03-03T05:00:13.228Z,37.38
2023-03-03T05:02:41.508Z,39.15
2023-03-03T05:05:11.072Z,38.95
2023-03-03T05:07:38.927Z,37.10
2023-03-03T05:10:07.588Z,34.42
2023-03-03T05:12:35.501Z,38.97
2023-03-03T05:15:07.400Z,35.40
2023-03-03T05:17:35.293Z,36.67
2023-03-03T05:20:03.261Z,38.40
2023-03-03T05:22:31.203Z,37.72
2023-03-03T05:24:59.164Z,36.38
2023-03-03T05:27:27.070Z,37.47
2023-03-03T05:29:54.995Z,38.08
2023-03-03T05:32:24.280Z,37.72
2023-03-03T05:34:52.581Z,35.90
2023-03-03T05:37:20.500Z,39.30
2023-03-03T05:39:48.554Z,36.20
2023-03-03T05:42:16.497Z,39.10
2023-03-03T05:44:44.352Z,38.83
2023-03-03T05:47:12.733Z,38.33
2023-03-03T05:49:42.618Z,35.40
2023-03-03T05:52:11.183Z,36.10
2023-03-03T05:54:39.174Z,37.13
2023-03-03T05:57:07.668Z,36.20
2023-03-03T05:59:35.595Z,37.88
2023-03-03T06:02:03.635Z,38.60
2023-03-03T06:04:31.646Z,37.58
2023-03-03T06:07:00.961Z,39.03
2023-03-03T06:09:29.017Z,35.83
2023-03-03T06:11:57.090Z,41.72
2023-03-03T06:14:27.047Z,40.92
2023-03-03T06:16:55.148Z,43.08
2023-03-03T06:19:23.356Z,37.45
2023-03-03T06:21:51.328Z,41.40
2023-03-03T06:24:20.587Z,40.10
2023-03-03T06:26:48.432Z,40.33
2023-03-03T06:29:16.469Z,41.35
2023-03-03T06:31:44.978Z,38.15
2023-03-03T06:34:12.909Z,38.35
2023-03-03T06:36:40.778Z,39.95
2023-03-03T06:39:11.389Z,38.63
2023-03-03T06:41:40.824Z,40.35
2023-03-03T06:44:09.075Z,38.35
2023-03-03T06:46:37.069Z,37.97
2023-03-03T06:49:05.114Z,37.95
2023-03-03T06:51:35.219Z,36.15
2023-03-03T06:54:04.107Z,38.75
2023-03-03T06:56:32.849Z,38.45
2023-03-03T06:59:03.726Z,37.35
2023-03-03T07:01:35.323Z,39.58
2023-03-03T07:04:03.916Z,37.53
2023-03-03T07:06:33.455Z,38.20
2023-03-03T07:09:01.725Z,34.58
2023-03-03T07:11:29.662Z,36.72
2023-03-03T07:13:57.792Z,34.88
2023-03-03T07:16:28.619Z,35.15
2023-03-03T07:18:58.590Z,39.95
2023-03-03T07:21:27.905Z,36.60
2023-03-03T07:23:56.290Z,36.47
2023-03-03T07:26:26.525Z,35.90
2023-03-03T07:28:55.708Z,38.03
2023-03-03T07:31:35.734Z,40.67
2023-03-03T07:34:06.288Z,39.80
2023-03-03T07:36:36.422Z,37.50
2023-03-03T07:39:06.468Z,37.53
2023-03-03T07:41:35.956Z,37.45
2023-03-03T07:44:06.162Z,36.42
2023-03-03T07:46:39.699Z,35.67
2023-03-03T07:49:13.592Z,37.05
2023-03-03T07:51:42.724Z,44.17
2023-03-03T07:54:18.978Z,59.22
2023-03-03T07:56:47.849Z,38.78
2023-03-03T07:59:22.478Z,36.88
2023-03-03T08:01:55.310Z,35.38
2023-03-03T08:04:25.315Z,39.22
2023-03-03T08:06:54.753Z,38.78
2023-03-03T08:09:34.108Z,37.95
2023-03-03T08:12:13.572Z,39.17
2023-03-03T08:14:41.589Z,37.55
2023-03-03T08:17:16.003Z,37.60
2023-03-03T08:19:43.966Z,41.50
2023-03-03T08:22:14.217Z,40.08
2023-03-03T08:24:42.577Z,38.42
2023-03-03T08:27:10.986Z,39.83
2023-03-03T08:29:39.158Z,39.53
2023-03-03T08:32:07.068Z,40.40
2023-03-03T08:34:36.445Z,39.15
2023-03-03T08:37:04.393Z,39.25
2023-03-03T08:39:32.301Z,40.60
2023-03-03T08:42:00.228Z,40.33
2023-03-03T08:44:28.107Z,39.05
2023-03-03T08:46:56.043Z,36.38
2023-03-03T08:49:23.929Z,34.65
2023-03-03T08:51:54.720Z,31.20
2023-03-03T08:54:22.678Z,34.40
2023-03-03T08:56:50.713Z,33.95
2023-03-03T08:59:19.072Z,33.55
2023-03-03T09:01:47.120Z,32.80
2023-03-03T09:04:15.262Z,32.08
2023-03-03T09:06:43.139Z,32.55
2023-03-03T09:09:12.645Z,33.35
2023-03-03T09:11:40.594Z,32.08
2023-03-03T09:14:12.316Z,34.28
2023-03-03T09:16:41.152Z,33.83
2023-03-03T09:19:22.548Z,33.28
2023-03-03T09:21:52.066Z,30.63
2023-03-03T09:24:25.224Z,32.88
2023-03-03T09:26:54.925Z,31.33
2023-03-03T09:29:27.725Z,31.67
2023-03-03T09:31:56.294Z,32.35
2023-03-03T09:34:25.728Z,29.60
2023-03-03T09:36:54.332Z,32.20
2023-03-03T09:39:24.475Z,29.90
2023-03-03T09:42:17.545Z,29.17
2023-03-03T09:45:03.274Z,28.83
2023-03-03T09:47:42.510Z,27.95
2023-03-03T09:50:20.140Z,28.27
2023-03-03T09:52:52.240Z,27.58
2023-03-03T09:55:27.814Z,28.10
2023-03-03T09:58:10.860Z,28.38
2023-03-03T10:00:47.006Z,27.08
2023-03-03T10:03:26.563Z,24.02
2023-03-03T10:05:58.954Z,24.10
2023-03-03T10:08:42.555Z,24.52
2023-03-03T10:11:17.400Z,25.83
2023-03-03T10:13:49.745Z,26.55
2023-03-03T10:16:22.958Z,25.27
2023-03-03T10:18:55.117Z,24.20
2023-03-03T10:21:25.758Z,23.00
2023-03-03T10:23:58.506Z,18.65
2023-03-03T10:26:45.615Z,20.85
2023-03-03T10:29:26.519Z,21.00
2023-03-03T10:32:03.124Z,21.48
2023-03-03T10:34:40.119Z,18.77
2023-03-03T10:37:10.448Z,18.25
2023-03-03T10:39:51.477Z,18.98
2023-03-03T10:42:27.604Z,17.83
2023-03-03T10:45:03.954Z,18.65
2023-03-03T10:47:38.965Z,17.80
2023-03-03T10:50:15.814Z,19.15
2023-03-03T10:52:46.429Z,18.45
2023-03-03T10:55:22.463Z,19.27
2023-03-03T10:57:54.975Z,20.05
2023-03-03T11:00:24.940Z,18.92
2023-03-03T11:03:10.642Z,19.30
2023-03-03T11:05:41.618Z,17.80
2023-03-03T11:08:11.298Z,17.90
2023-03-03T11:10:46.353Z,17.75
2023-03-03T11:13:19.667Z,16.38
2023-03-03T11:15:56.410Z,18.40
2023-03-03T11:18:33.074Z,19.75
2023-03-03T11:21:05.051Z,18.98
2023-03-03T11:24:04.167Z,18.80
2023-03-03T11:26:43.637Z,18.98
2023-03-03T11:29:21.016Z,19.20
2023-03-03T11:31:58.919Z,17.50
2023-03-03T11:34:40.824Z,15.10
2023-03-03T11:37:09.971Z,17.92
2023-03-03T11:39:38.091Z,17.67
2023-03-03T11:42:09.959Z,18.45
2023-03-03T11:44:41.948Z,18.30
2023-03-03T11:47:15.633Z,19.08
2023-03-03T11:49:46.240Z,19.83
2023-03-03T11:52:20.938Z,19.40
2023-03-03T11:54:51.182Z,18.33
2023-03-03T11:57:22.065Z,19.35
2023-03-03T11:59:53.185Z,19.33
2023-03-03T12:02:35.848Z,19.25
2023-03-03T12:05:10.562Z,17.75
2023-03-03T12:07:43.835Z,18.40
2023-03-03T12:10:19.223Z,17.40
2023-03-03T12:12:51.894Z,17.52
2023-03-03T12:15:28.720Z,17.52
2023-03-03T12:18:12.291Z,17.33
2023-03-03T12:20:46.935Z,19.88
2023-03-03T12:23:23.902Z,18.48
2023-03-03T12:25:56.075Z,17.85
2023-03-03T12:28:25.357Z,19.70
2023-03-03T12:31:08.899Z,18.95
2023-03-03T12:33:41.700Z,18.60
2023-03-03T12:36:18.236Z,19.58
2023-03-03T12:38:49.608Z,19.60
2023-03-03T12:41:24.179Z,18.00
2023-03-03T12:43:56.334Z,19.60
2023-03-03T12:46:30.927Z,18.95
2023-03-03T12:48:58.967Z,17.05
2023-03-03T12:51:32.616Z,17.70
2023-03-03T12:54:09.940Z,17.55
2023-03-03T12:56:41.368Z,20.63
2023-03-03T12:59:15.535Z,18.33
2023-03-03T13:01:55.346Z,17.52
2023-03-03T13:04:31.811Z,17.75
2023-03-03T13:07:02.093Z,19.55
2023-03-03T13:09:34.826Z,17.15
2023-03-03T13:12:19.442Z,17.50
2023-03-03T13:14:52.358Z,16.35
2023-03-03T13:17:24.177Z,16.77
2023-03-03T13:19:54.345Z,16.13
2023-03-03T13:22:29.103Z,18.65
2023-03-03T13:24:59.684Z,16.30
2023-03-03T13:27:28.909Z,13.77
2023-03-03T13:29:59.925Z,14.15
2023-03-03T13:32:32.577Z,13.63
2023-03-03T13:35:02.462Z,11.60
2023-03-03T13:37:31.929Z,12.10
2023-03-03T13:40:01.255Z,11.65
2023-03-03T13:42:34.062Z,12.05
2023-03-03T13:45:03.148Z,11.05
2023-03-03T13:47:35.689Z,12.15
2023-03-03T13:50:14.889Z,12.85
2023-03-03T13:52:48.144Z,12.15
2023-03-03T13:55:21.762Z,12.43
2023-03-03T13:57:58.888Z,12.32
2023-03-03T14:00:29.721Z,11.52
2023-03-03T14:03:12.352Z,11.07
2023-03-03T14:05:43.100Z,17.30
2023-03-03T14:08:14.484Z,12.88
2023-03-03T14:10:45.544Z,12.52
2023-03-03T14:13:14.615Z,12.73
2023-03-03T14:15:45.961Z,13.70
2023-03-03T14:18:19.920Z,13.20
2023-03-03T14:20:50.101Z,15.57
2023-03-03T14:23:20.200Z,15.60
2023-03-03T14:25:52.637Z,15.50
2023-03-03T14:28:21.582Z,17.10
2023-03-03T14:30:49.651Z,15.65
2023-03-03T14:33:20.560Z,17.25
2023-03-03T14:36:01.296Z,16.30
2023-03-03T14:38:38.065Z,16.55
2023-03-03T14:41:12.550Z,15.57
2023-03-03T14:43:41.969Z,14.07
2023-03-03T14:46:26.406Z,15.15
2023-03-03T14:49:02.580Z,14.88
2023-03-03T14:51:34.505Z,13.35
2023-03-03T14:54:02.634Z,13.98
2023-03-03T14:56:31.678Z,14.40
2023-03-03T14:59:18.232Z,17.10
2023-03-03T15:01:46.370Z,16.15
2023-03-03T15:04:33.488Z,16.77
2023-03-03T15:07:15.672Z,16.83
2023-03-03T15:09:50.473Z,16.33
2023-03-03T15:12:20.339Z,17.15
2023-03-03T15:14:49.390Z,17.73
2023-03-03T15:17:21.738Z,18.25
2023-03-03T15:19:55.439Z,17.08
2023-03-03T15:22:35.662Z,18.33
2023-03-03T15:25:06.942Z,17.48
2023-03-03T15:27:37.593Z,18.48
2023-03-03T15:30:11.338Z,17.40
2023-03-03T15:32:44.761Z,17.08
2023-03-03T15:35:20.470Z,20.38
2023-03-03T15:37:54.578Z,22.05
2023-03-03T15:40:26.079Z,20.13
2023-03-03T15:43:01.668Z,19.55
2023-03-03T15:45:33.863Z,20.13
2023-03-03T15:48:13.937Z,19.80
2023-03-03T15:50:53.680Z,18.85
2023-03-03T15:53:28.734Z,19.95
2023-03-03T15:56:03.338Z,19.27
2023-03-03T15:58:44.765Z,19.25
2023-03-03T16:01:15.812Z,19.40
2023-03-03T16:03:46.582Z,18.33
2023-03-03T16:06:17.534Z,19.42
2023-03-03T16:08:51.214Z,19.25
2023-03-03T16:11:23.157Z,18.60
2023-03-03T16:13:59.418Z,18.42
2023-03-03T16:16:32.321Z,19.63
2023-03-03T16:19:07.278Z,18.20
2023-03-03T16:21:45.309Z,17.55
2023-03-03T16:24:22.998Z,19.95
2023-03-03T16:26:55.607Z,20.95
2023-03-03T16:29:33.371Z,21.50
2023-03-03T16:32:03.813Z,19.98
2023-03-03T16:34:34.809Z,21.92
2023-03-03T16:37:08.501Z,21.95
2023-03-03T16:39:43.608Z,20.13
2023-03-03T16:42:21.414Z,20.75
2023-03-03T16:44:53.889Z,20.60
2023-03-03T16:47:28.828Z,21.02
2023-03-03T16:50:12.039Z,21.08
2023-03-03T16:52:43.561Z,22.17
2023-03-03T16:55:17.146Z,22.83
2023-03-03T16:57:48.797Z,22.10
2023-03-03T17:00:21.440Z,22.05
2023-03-03T17:03:00.294Z,23.77
2023-03-03T17:05:37.048Z,23.52
2023-03-03T17:08:14.773Z,21.75
2023-03-03T17:10:48.801Z,23.48
2023-03-03T17:13:23.248Z,24.23
2023-03-03T17:15:57.133Z,25.42
2023-03-03T17:18:29.382Z,25.08
2023-03-03T17:20:59.463Z,24.27
2023-03-03T17:23:44.260Z,25.05
2023-03-03T17:26:40.719Z,24.70
2023-03-03T17:29:21.939Z,24.27
2023-03-03T17:31:55.132Z,24.17
2023-03-03T17:34:29.382Z,23.75
2023-03-03T17:37:04.795Z,23.83
2023-03-03T17:39:48.382Z,25.25
2023-03-03T17:42:22.863Z,38.80
2023-03-03T17:45:04.845Z,61.25
2023-03-03T17:47:47.224Z,105.15
2023-03-03T17:50:30.369Z,52.15
2023-03-03T17:53:13.670Z,28.45
2023-03-03T17:55:49.323Z,26.70
2023-03-03T17:58:25.921Z,26.48
2023-03-03T18:01:01.947Z,29.73
2023-03-03T18:04:02.656Z,27.10
2023-03-03T18:06:43.026Z,29.10
2023-03-03T18:09:17.331Z,32.15
2023-03-03T18:11:58.139Z,29.20
2023-03-03T18:14:35.415Z,30.25
2023-03-03T18:17:15.017Z,31.20
2023-03-03T18:19:56.586Z,30.75
2023-03-03T18:22:26.942Z,30.50
2023-03-03T18:24:57.025Z,31.00
2023-03-03T18:27:35.916Z,29.27
2023-03-03T18:30:25.184Z,31.92
2023-03-03T18:33:11.243Z,43.20
2023-03-03T18:35:41.676Z,34.67
2023-03-03T18:38:24.437Z,34.25
2023-03-03T18:40:53.022Z,33.47
2023-03-03T18:43:53.985Z,35.30
2023-03-03T18:46:40.133Z,38.13
2023-03-03T18:49:10.069Z,36.25
2023-03-03T18:51:55.567Z,38.25
2023-03-03T18:54:31.072Z,37.92
2023-03-03T18:57:16.772Z,37.78
2023-03-03T18:59:50.167Z,40.83
2023-03-03T19:02:21.447Z,39.95
2023-03-03T19:04:55.631Z,40.10
2023-03-03T19:07:27.909Z,39.70
2023-03-03T19:09:58.232Z,40.08
2023-03-03T19:12:46.912Z,39.20
2023-03-03T19:15:35.442Z,41.35
2023-03-03T19:18:04.373Z,40.42
2023-03-03T19:20:39.910Z,47.78
2023-03-03T19:23:09.958Z,42.00
2023-03-03T19:25:38.555Z,38.50
2023-03-03T19:28:14.596Z,41.25
2023-03-03T19:30:46.319Z,39.40
2023-03-03T19:33:26.891Z,39.92
2023-03-03T19:36:00.598Z,38.78
2023-03-03T19:38:34.645Z,39.33
2023-03-03T19:41:09.119Z,39.55
2023-03-03T19:43:40.890Z,38.63
2023-03-03T19:46:23.053Z,38.55
2023-03-03T19:48:54.722Z,38.10
2023-03-03T19:51:28.830Z,39.90
2023-03-03T19:54:00.967Z,35.30
2023-03-03T19:56:32.504Z,38.08
2023-03-03T19:59:08.171Z,34.88
2023-03-03T20:01:44.207Z,38.47
2023-03-03T20:04:20.461Z,35.08
2023-03-03T20:06:53.699Z,33.72
2023-03-03T20:09:28.048Z,34.53
2023-03-03T20:12:00.242Z,35.03
2023-03-03T20:14:41.090Z,34.05
2023-03-03T20:17:27.828Z,31.70
2023-03-03T20:19:57.360Z,32.25
2023-03-03T20:22:32.960Z,32.80
2023-03-03T20:25:14.583Z,33.60
2023-03-03T20:27:48.694Z,47.83
2023-03-03T20:30:25.331Z,31.48
2023-03-03T20:33:00.172Z,31.27
2023-03-03T20:35:33.498Z,29.90
2023-03-03T20:38:09.729Z,30.70
2023-03-03T20:40:41.630Z,28.70
2023-03-03T20:43:16.843Z,28.95
2023-03-03T20:45:48.983Z,29.05
2023-03-03T20:48:27.854Z,28.63
2023-03-03T20:51:01.153Z,35.45
2023-03-03T20:53:35.081Z,38.67
2023-03-03T20:56:07.005Z,43.75
2023-03-03T20:58:41.037Z,43.13
2023-03-03T21:01:10.105Z,45.90
2023-03-03T21:03:39.102Z,47.85
2023-03-03T21:06:09.187Z,46.30
2023-03-03T21:08:46.007Z,46.97
2023-03-03T21:11:15.112Z,49.05
2023-03-03T21:13:44.369Z,44.95
2023-03-03T21:16:14.256Z,46.83
2023-03-03T21:18:42.885Z,44.90
2023-03-03T21:21:10.880Z,46.97
2023-03-03T21:23:38.849Z,44.15
2023-03-03T21:26:08.134Z,46.28
2023-03-03T21:28:36.046Z,46.42
2023-03-03T21:31:12.826Z,43.72
2023-03-03T21:33:50.674Z,43.55
2023-03-03T21:36:23.480Z,41.35
2023-03-03T21:38:52.560Z,44.55
2023-03-03T21:41:21.970Z,45.10
2023-03-03T21:43:51.023Z,46.13
2023-03-03T21:46:20.041Z,42.85
2023-03-03T21:48:48.689Z,44.70
2023-03-03T21:51:16.619Z,43.05
2023-03-03T21:53:45.797Z,43.85
2023-03-03T21:56:14.625Z,43.42
2023-03-03T21:58:44.624Z,42.97
2023-03-03T22:01:13.176Z,41.55
2023-03-03T22:03:41.026Z,44.05
2023-03-03T22:06:09.746Z,44.60
2023-03-03T22:08:37.726Z,43.17
2023-03-03T22:11:06.047Z,43.85
2023-03-03T22:13:33.973Z,43.33
2023-03-03T22:16:03.470Z,44.85
2023-03-03T22:18:31.439Z,44.67
2023-03-03T22:21:02.041Z,43.35
2023-03-03T22:23:30.034Z,45.53
2023-03-03T22:25:57.963Z,46.85
2023-03-03T22:28:25.869Z,44.45
2023-03-03T22:30:53.805Z,46.65
2023-03-03T22:33:23.173Z,43.70
2023-03-03T22:35:51.191Z,43.42
2023-03-03T22:38:19.272Z,42.75
2023-03-03T22:40:48.155Z,41.63
2023-03-03T22:43:16.138Z,42.60
2023-03-03T22:45:44.810Z,40.38
2023-03-03T22:48:13.083Z,42.20
2023-03-03T22:50:45.661Z,42.47
2023-03-03T22:53:13.977Z,44.15
2023-03-03T22:55:41.822Z,46.10
2023-03-03T22:58:10.055Z,46.45
2023-03-03T23:00:39.199Z,45.10
2023-03-03T23:03:07.405Z,48.38
2023-03-03T23:05:35.934Z,53.05
2023-03-03T23:08:05.516Z,54.92
2023-03-03T23:10:33.544Z,54.72
2023-03-03T23:13:01.534Z,54.90
2023-03-03T23:15:30.375Z,50.53
2023-03-03T23:17:58.246Z,50.00
2023-03-03T23:20:26.927Z,47.92
2023-03-03T23:22:55.043Z,47.95
2023-03-03T23:25:24.769Z,46.38
2023-03-03T23:27:53.303Z,53.95
2023-03-03T23:30:22.145Z,53.95
2023-03-03T23:32:50.359Z,55.85
2023-03-03T23:35:18.692Z,54.10
2023-03-03T23:37:47.099Z,53.03
2023-03-03T23:40:15.786Z,48.83
2023-03-03T23:42:45.215Z,48.75
2023-03-03T23:45:14.622Z,50.88
2023-03-03T23:47:42.811Z,53.03
2023-03-03T23:50:12.138Z,55.30
2023-03-03T23:52:39.995Z,54.67
2023-03-03T23:55:08.788Z,54.22
2023-03-03T23:57:39.597Z,56.30
